Time;durP1;ratioP1;P1;durP2;ratioP2;P2;SDS_P1;SDS_P2;PMS_P1;PMS_P2;Temp;Humidity;BMP_temperature;BMP_pressure;BME280_temperature;BME280_humidity;BME280_pressure;Samples;Min_cycle;Max_cycle;Signal;HPM_P1;HPM_P2
2023/01/11 00:00:24;;;;;;;0.60;0.60;;;;;;;5.10;88.81;99363.91;5028126;28;20117;-70
2023/01/11 00:02:58;;;;;;;0.50;0.50;;;;;;;4.98;90.21;99363.94;5027984;28;20030;-71
2023/01/11 00:05:24;;;;;;;0.50;0.50;;;;;;;5.14;88.31;99347.63;5027914;28;20049;-73
2023/01/11 00:07:50;;;;;;;0.50;0.50;;;;;;;4.98;89.34;99351.94;5027604;28;20022;-71
2023/01/11 00:10:16;;;;;;;0.50;0.50;;;;;;;5.15;88.35;99333.03;5027988;28;20041;-72
2023/01/11 00:12:41;;;;;;;0.50;0.50;;;;;;;5.16;87.24;99345.03;5027849;28;20022;-70
2023/01/11 00:15:07;;;;;;;0.63;0.63;;;;;;;5.14;87.08;99308.16;5027824;28;20018;-72
2023/01/11 00:17:33;;;;;;;0.50;0.50;;;;;;;5.07;86.88;99313.34;5027630;28;20037;-71
2023/01/11 00:19:58;;;;;;;0.50;0.50;;;;;;;5.25;86.80;99290.09;5027818;28;20030;-70
2023/01/11 00:22:23;;;;;;;0.50;0.50;;;;;;;5.15;86.62;99299.56;5026349;28;20022;-71
2023/01/11 00:24:49;;;;;;;0.50;0.50;;;;;;;4.96;87.45;99285.06;5027332;28;20049;-70
2023/01/11 00:27:15;;;;;;;0.50;0.50;;;;;;;4.80;88.55;99281.69;5027230;28;20260;-70
2023/01/11 00:29:40;;;;;;;0.50;0.50;;;;;;;4.57;89.92;99262.03;5027771;28;20078;-75
2023/01/11 00:32:06;;;;;;;0.50;0.50;;;;;;;4.68;89.10;99282.56;5027488;28;20029;-75
2023/01/11 00:34:31;;;;;;;0.50;0.50;;;;;;;4.52;90.54;99265.47;5042617;28;20112;-73
2023/01/11 00:36:56;;;;;;;0.50;0.50;;;;;;;4.44;90.99;99261.19;5042445;28;20025;-74
2023/01/11 00:39:22;;;;;;;0.40;0.40;;;;;;;4.33;92.01;99260.34;5027182;28;20499;-74
2023/01/11 00:50:01;;;;;;;0.50;0.50;;;;;;;4.15;93.24;99218.44;5027232;28;20080;-74
2023/01/11 00:52:26;;;;;;;1.35;1.35;;;;;;;4.23;92.90;99218.44;5026964;28;20018;-75
2023/01/11 00:54:52;;;;;;;0.50;0.50;;;;;;;4.16;93.17;99212.44;5042540;28;20029;-74
2023/01/11 00:57:17;;;;;;;1.35;1.35;;;;;;;4.21;92.87;99199.56;5028159;28;20021;-77
2023/01/11 00:59:43;;;;;;;0.60;0.60;;;;;;;4.31;92.14;99190.97;5027669;28;20377;-78
2023/01/11 01:02:09;;;;;;;1.02;0.98;;;;;;;4.21;91.59;99161.03;5026878;28;20071;-75
2023/01/11 01:04:36;;;;;;;0.60;0.60;;;;;;;4.01;93.37;99179.06;5026948;28;20081;-75
2023/01/11 01:07:02;;;;;;;2.08;1.95;;;;;;;4.30;92.03;99152.44;5026577;28;20029;-77
2023/01/11 01:09:27;;;;;;;1.63;1.58;;;;;;;4.22;91.67;99167.88;5026903;28;20068;-75
2023/01/11 01:11:53;;;;;;;2.60;2.40;;;;;;;4.16;93.00;99158.50;5026790;28;20121;-78
2023/01/11 01:14:24;;;;;;;0.75;0.75;;;;;;;4.02;93.25;99149.94;5026658;28;20014;-77
2023/01/11 01:16:54;;;;;;;0.47;0.47;;;;;;;3.96;93.25;99143.97;5026646;28;20033;-73
2023/01/11 01:19:21;;;;;;;0.40;0.40;;;;;;;3.87;93.61;99131.13;5026546;28;20026;-73
2023/01/11 01:21:47;;;;;;;0.50;0.50;;;;;;;4.04;92.53;99100.28;5026606;28;20025;-71
2023/01/11 01:24:12;;;;;;;0.40;0.40;;;;;;;3.86;92.75;99101.19;5026272;28;20076;-71
2023/01/11 01:26:38;;;;;;;0.50;0.50;;;;;;;3.93;92.93;99120.84;5026276;28;20033;-71
2023/01/11 01:29:03;;;;;;;0.52;0.52;;;;;;;3.89;93.63;99098.63;5026520;28;20091;-73
2023/01/11 01:31:28;;;;;;;1.23;1.20;;;;;;;4.05;92.68;99099.44;5026364;28;20490;-68
2023/01/11 01:33:54;;;;;;;0.50;0.50;;;;;;;3.87;93.32;99090.06;5026630;28;20034;-68
2023/01/11 01:36:19;;;;;;;0.50;0.50;;;;;;;3.61;94.85;99075.56;5026307;28;20018;-69
2023/01/11 01:38:45;;;;;;;0.50;0.50;;;;;;;3.80;93.84;99057.56;5025001;28;20030;-69
2023/01/11 01:41:14;;;;;;;0.60;0.60;;;;;;;3.70;94.17;99047.31;5026387;28;20033;-68
2023/01/11 01:43:57;;;;;;;0.50;0.50;;;;;;;3.57;95.16;99025.97;5026137;28;20429;-70
2023/01/11 01:46:27;;;;;;;0.50;0.50;;;;;;;3.76;94.31;99031.03;5026202;28;20025;-70
2023/01/11 01:49:11;;;;;;;1.40;1.20;;;;;;;3.83;93.34;99006.22;5026060;28;20030;-70
2023/01/11 01:51:48;;;;;;;0.50;0.50;;;;;;;3.62;94.71;99010.53;5026120;28;20040;-69
2023/01/11 01:54:19;;;;;;;0.60;0.60;;;;;;;3.43;95.58;99017.44;5025654;28;20029;-69
2023/01/11 01:56:52;;;;;;;0.50;0.50;;;;;;;3.90;93.14;98994.22;5025670;28;20034;-69
2023/01/11 01:59:20;;;;;;;0.50;0.50;;;;;;;3.55;94.68;99007.13;5025955;28;20030;-69
2023/01/11 02:01:46;;;;;;;0.50;0.50;;;;;;;3.53;95.61;98980.63;5025734;28;20029;-70
2023/01/11 02:04:25;;;;;;;0.50;0.50;;;;;;;3.44;95.81;98947.28;5025935;28;20063;-70
2023/01/11 02:07:13;;;;;;;0.50;0.50;;;;;;;3.58;95.24;98942.97;5025547;28;20041;-70
2023/01/11 02:09:51;;;;;;;0.50;0.50;;;;;;;3.58;94.96;98916.44;5025310;28;20057;-69
2023/01/11 02:12:17;;;;;;;0.50;0.50;;;;;;;3.85;93.18;98860.69;5025566;28;20018;-69
2023/01/11 02:14:45;;;;;;;0.50;0.50;;;;;;;3.67;93.27;98893.31;5025350;28;20022;-69
2023/01/11 02:17:11;;;;;;;0.50;0.50;;;;;;;3.64;93.64;98877.09;5025522;28;20022;-68
2023/01/11 02:20:01;;;;;;;1.00;1.00;;;;;;;3.51;94.45;98872.00;5025604;28;20041;-69
2023/01/11 02:22:57;;;;;;;0.50;0.50;;;;;;;3.72;92.86;98917.25;5025268;28;20130;-67
2023/01/11 02:25:44;;;;;;;0.50;0.50;;;;;;;3.42;94.78;98887.44;5025352;28;20053;-67
2023/01/11 02:28:28;;;;;;;0.50;0.50;;;;;;;3.33;95.41;98888.31;5025078;28;20030;-68
2023/01/11 02:31:15;;;;;;;0.50;0.50;;;;;;;3.32;96.33;98914.84;5025359;28;20036;-70
2023/01/11 02:34:16;;;;;;;0.50;0.50;;;;;;;3.20;97.20;98896.06;5025291;28;20053;-68
2023/01/11 02:36:56;;;;;;;0.85;0.85;;;;;;;3.18;96.70;98873.84;5025109;28;20025;-68
2023/01/11 02:40:07;;;;;;;0.50;0.50;;;;;;;3.48;95.58;98872.03;5024903;28;20072;-68
2023/01/11 02:45:29;;;;;;;0.50;0.50;;;;;;;3.66;92.65;98817.16;5025139;28;20041;-70
2023/01/11 02:47:58;;;;;;;0.50;0.50;;;;;;;3.27;94.57;98852.44;5025097;28;20025;-71
2023/01/11 02:51:00;;;;;;;0.40;0.40;;;;;;;3.01;95.69;98828.56;5025084;28;20156;-71
2023/01/11 02:53:37;;;;;;;0.60;0.60;;;;;;;3.15;96.04;98819.97;5040166;28;20037;-71
2023/01/11 02:56:08;;;;;;;0.50;0.50;;;;;;;3.25;95.39;98833.63;5025154;28;20026;-69
2023/01/11 02:58:37;;;;;;;0.60;0.60;;;;;;;2.92;96.59;98808.97;5025125;28;20026;-70
2023/01/11 03:01:03;;;;;;;0.50;0.50;;;;;;;2.92;97.35;98815.78;5025019;28;20493;-70
2023/01/11 03:03:29;;;;;;;0.50;0.50;;;;;;;3.20;96.50;98828.50;5025056;28;20080;-70
2023/01/11 03:06:03;;;;;;;0.50;0.50;;;;;;;3.18;95.37;98787.47;5024982;28;20034;-71
2023/01/11 03:08:44;;;;;;;0.50;0.50;;;;;;;3.52;93.54;98771.06;5024923;28;20040;-68
2023/01/11 03:14:57;;;;;;;0.50;0.50;;;;;;;3.10;97.37;98773.81;5025306;28;20087;-69
2023/01/11 03:17:37;;;;;;;0.77;0.77;;;;;;;3.30;96.24;98730.16;5025014;28;20022;-70
2023/01/11 03:20:17;;;;;;;0.50;0.50;;;;;;;3.40;96.14;98715.56;5024815;28;20030;-70
2023/01/11 03:23:01;;;;;;;0.60;0.60;;;;;;;3.66;94.72;98719.63;5024869;28;20107;-69
2023/01/11 03:25:38;;;;;;;0.50;0.50;;;;;;;3.47;94.93;98711.22;5024819;28;20577;-70
2023/01/11 03:28:41;;;;;;;0.50;0.50;;;;;;;3.28;96.16;98660.03;5040133;28;20029;-69
2023/01/11 03:31:21;;;;;;;0.50;0.50;;;;;;;3.44;97.16;98709.53;5024910;28;20061;-70
2023/01/11 03:34:17;;;;;;;0.50;0.50;;;;;;;3.57;95.88;98683.78;5040070;28;20072;-70
2023/01/11 03:36:47;;;;;;;0.50;0.50;;;;;;;3.41;97.06;98659.94;5024962;28;20125;-69
2023/01/11 03:40:02;;;;;;;0.50;0.50;;;;;;;3.58;97.42;98667.50;5024364;28;20045;-70
2023/01/11 03:42:29;;;;;;;0.50;0.50;;;;;;;3.45;97.83;98652.22;5018272;28;20057;-70
2023/01/11 03:44:58;;;;;;;0.50;0.50;;;;;;;3.76;96.39;98669.09;5024496;28;20044;-70
2023/01/11 03:47:26;;;;;;;0.50;0.50;;;;;;;3.78;97.31;98658.81;5024575;28;20018;-70
2023/01/11 03:49:57;;;;;;;0.50;0.50;;;;;;;3.86;96.31;98621.09;5024627;28;20110;-68
2023/01/11 03:52:30;;;;;;;0.50;0.50;;;;;;;3.99;95.12;98636.38;5024355;28;20052;-68
2023/01/11 03:54:57;;;;;;;0.50;0.50;;;;;;;3.67;97.49;98643.50;5025132;28;20065;-69
2023/01/11 03:57:29;;;;;;;2.83;2.72;;;;;;;3.60;98.85;98619.59;5024483;28;20022;-69
2023/01/11 03:59:54;;;;;;;0.50;0.50;;;;;;;3.65;98.90;98627.25;5024898;28;20052;-68
2023/01/11 04:02:24;;;;;;;0.50;0.50;;;;;;;3.91;98.15;98621.03;5027887;28;20026;-68
2023/01/11 04:04:50;;;;;;;0.50;0.50;;;;;;;4.03;97.19;98617.47;5043072;28;20021;-69
2023/01/11 04:07:15;;;;;;;0.50;0.50;;;;;;;3.78;98.13;98607.47;5027754;28;20026;-69
2023/01/11 04:09:41;;;;;;;0.50;0.50;;;;;;;3.79;98.61;98602.31;5027925;28;20052;-69
2023/01/11 04:12:07;;;;;;;0.50;0.50;;;;;;;3.79;98.50;98601.47;5027853;28;20034;-69
2023/01/11 04:14:33;;;;;;;0.50;0.50;;;;;;;3.74;99.28;98611.78;5027902;28;20028;-67
2023/01/11 04:16:58;;;;;;;0.50;0.50;;;;;;;3.83;99.60;98580.03;5027480;28;20022;-69
2023/01/11 04:19:24;;;;;;;0.50;0.50;;;;;;;4.14;97.84;98574.56;5042980;28;20441;-67
2023/01/11 04:21:49;;;;;;;0.50;0.50;;;;;;;3.94;98.11;98585.06;5027665;28;20033;-68
2023/01/11 04:24:14;;;;;;;0.50;0.50;;;;;;;3.95;98.57;98586.75;5027613;28;20060;-68
2023/01/11 04:26:40;;;;;;;0.50;0.50;;;;;;;3.87;99.39;98586.84;5027589;28;20048;-69
2023/01/11 04:29:05;;;;;;;0.50;0.50;;;;;;;3.67;99.76;98553.69;5027377;28;20036;-68
2023/01/11 04:31:31;;;;;;;0.50;0.50;;;;;;;4.07;97.86;98575.50;5027501;28;20026;-69
2023/01/11 04:33:57;;;;;;;0.50;0.50;;;;;;;3.84;99.24;98582.59;5026080;28;20061;-70
2023/01/11 04:36:23;;;;;;;0.50;0.50;;;;;;;3.92;99.04;98585.06;5027617;28;20082;-70
2023/01/11 04:38:48;;;;;;;0.50;0.50;;;;;;;3.87;99.31;98579.13;5027306;28;20061;-69
2023/01/11 04:43:58;;;;;;;0.50;0.50;;;;;;;3.93;99.23;98553.38;5027642;28;20033;-68
2023/01/11 04:46:24;;;;;;;0.50;0.50;;;;;;;4.05;98.73;98549.00;5027260;28;20022;-68
2023/01/11 04:48:49;;;;;;;0.50;0.50;;;;;;;4.04;98.27;98553.25;5027249;28;20022;-68
2023/01/11 04:51:15;;;;;;;0.50;0.50;;;;;;;3.88;99.65;98555.19;5027096;28;20334;-67
2023/01/11 04:53:40;;;;;;;0.50;0.50;;;;;;;3.97;98.83;98528.53;5026867;28;20030;-68
2023/01/11 04:56:06;;;;;;;0.70;0.70;;;;;;;4.07;99.02;98524.97;5027066;28;20026;-70
2023/01/11 04:58:34;;;;;;;0.50;0.50;;;;;;;4.02;98.60;98551.59;5026978;28;20085;-68
2023/01/11 05:01:00;;;;;;;0.55;0.55;;;;;;;4.03;98.79;98536.16;5042180;28;20026;-68
2023/01/11 05:03:26;;;;;;;0.50;0.50;;;;;;;4.12;98.64;98530.06;5026865;28;20036;-68
2023/01/11 05:05:58;;;;;;;0.50;0.50;;;;;;;3.87;99.54;98520.09;5026638;28;20040;-63
2023/01/11 05:08:25;;;;;;;0.50;0.50;;;;;;;4.04;99.22;98525.00;5026653;28;20076;-69
2023/01/11 05:10:55;;;;;;;0.50;0.50;;;;;;;4.05;99.27;98524.16;5026685;28;20040;-69
2023/01/11 05:13:40;;;;;;;0.50;0.50;;;;;;;3.93;100.00;98527.72;5026739;28;20481;-70
2023/01/11 05:16:09;;;;;;;0.50;0.50;;;;;;;4.15;99.29;98529.19;5026664;28;20121;-69
2023/01/11 05:18:38;;;;;;;0.50;0.50;;;;;;;4.03;99.95;98527.59;5026508;28;20168;-70
2023/01/11 05:21:05;;;;;;;0.50;0.50;;;;;;;4.01;100.00;98507.06;5026447;28;20026;-70
2023/01/11 05:23:32;;;;;;;0.50;0.50;;;;;;;4.17;100.00;98512.03;5026304;28;20028;-69
2023/01/11 05:25:57;;;;;;;0.50;0.50;;;;;;;4.12;100.00;98503.53;5026680;28;20090;-69
2023/01/11 05:28:22;;;;;;;0.50;0.50;;;;;;;4.02;100.00;98523.34;5026344;28;20022;-67
2023/01/11 05:30:52;;;;;;;0.52;0.52;;;;;;;4.15;100.00;98504.34;5026519;28;20052;-70
2023/01/11 05:33:18;;;;;;;0.50;0.50;;;;;;;4.12;100.00;98504.38;5026358;28;20045;-69
2023/01/11 05:35:43;;;;;;;0.50;0.50;;;;;;;4.18;100.00;98512.03;5026377;28;20014;-69
2023/01/11 05:38:08;;;;;;;0.50;0.50;;;;;;;4.03;100.00;98499.34;5025902;28;20123;-70
2023/01/11 05:40:34;;;;;;;0.47;0.47;;;;;;;4.09;100.00;98504.41;5026188;28;20509;-71
2023/01/11 05:42:59;;;;;;;0.50;0.50;;;;;;;4.20;100.00;98507.69;5026382;28;20022;-71
2023/01/11 05:45:27;;;;;;;0.50;0.50;;;;;;;4.19;100.00;98513.72;5024932;28;20048;-71
2023/01/11 05:47:53;;;;;;;0.50;0.50;;;;;;;4.22;100.00;98528.22;5026273;28;20022;-71
2023/01/11 05:50:19;;;;;;;0.50;0.50;;;;;;;4.34;100.00;98504.09;5026390;28;20030;-70
2023/01/11 05:52:45;;;;;;;0.60;0.60;;;;;;;4.43;100.00;98506.53;5026132;28;20061;-70
2023/01/11 05:55:10;;;;;;;0.50;0.50;;;;;;;4.27;100.00;98515.31;5025944;28;20064;-70
2023/01/11 05:57:40;;;;;;;0.50;0.50;;;;;;;4.25;100.00;98511.94;5026077;28;20437;-72
2023/01/11 06:00:06;;;;;;;0.75;0.75;;;;;;;4.44;100.00;98527.97;5026093;28;20045;-70
2023/01/11 06:02:33;;;;;;;0.50;0.50;;;;;;;4.49;100.00;98520.19;5024354;28;20022;-71
2023/01/11 06:04:59;;;;;;;0.50;0.50;;;;;;;4.73;100.00;98530.97;5025898;28;20037;-71
2023/01/11 06:07:24;;;;;;;0.50;0.50;;;;;;;4.49;100.00;98539.00;5026049;28;20033;-71
2023/01/11 06:09:49;;;;;;;0.50;0.50;;;;;;;4.45;100.00;98533.06;5025955;28;20037;-70
2023/01/11 06:12:15;;;;;;;0.50;0.50;;;;;;;4.45;100.00;98545.94;5025849;28;20060;-71
2023/01/11 06:14:40;;;;;;;0.50;0.50;;;;;;;4.49;100.00;98535.59;5025830;28;20021;-71
2023/01/11 06:17:06;;;;;;;0.50;0.50;;;;;;;4.64;100.00;98521.66;5025819;28;20440;-71
2023/01/11 06:19:31;;;;;;;0.50;0.50;;;;;;;4.65;100.00;98542.22;5025739;28;20048;-68
2023/01/11 06:21:56;;;;;;;0.50;0.50;;;;;;;4.69;100.00;98554.16;5040955;28;20097;-69
2023/01/11 06:24:22;;;;;;;0.40;0.40;;;;;;;4.90;100.00;98548.72;5040285;28;20036;-69
2023/01/11 06:26:47;;;;;;;0.50;0.50;;;;;;;4.68;100.00;98538.75;5025569;28;20021;-69
2023/01/11 06:29:13;;;;;;;0.50;0.50;;;;;;;4.74;100.00;98546.38;5024004;28;20109;-69
2023/01/11 06:31:39;;;;;;;0.50;0.50;;;;;;;4.81;100.00;98547.97;5025806;28;20030;-69
2023/01/11 06:34:04;;;;;;;0.50;0.50;;;;;;;4.83;100.00;98547.97;5025482;28;20130;-69
2023/01/11 06:36:30;;;;;;;0.50;0.50;;;;;;;4.93;100.00;98562.38;5025540;28;20053;-69
2023/01/11 06:38:55;;;;;;;0.50;0.50;;;;;;;4.96;100.00;98554.63;5040190;28;20081;-70
2023/01/11 06:41:20;;;;;;;0.50;0.50;;;;;;;5.01;100.00;98558.84;5025334;28;20022;-69
2023/01/11 06:43:46;;;;;;;0.50;0.50;;;;;;;5.10;100.00;98566.41;5025423;28;20033;-70
2023/01/11 06:46:14;;;;;;;0.47;0.47;;;;;;;5.16;100.00;98555.19;5040485;28;20386;-69
2023/01/11 06:48:39;;;;;;;0.50;0.50;;;;;;;5.21;100.00;98556.81;5025389;28;20030;-70
2023/01/11 06:51:04;;;;;;;0.50;0.50;;;;;;;5.29;100.00;98561.81;5023997;28;20032;-70
2023/01/11 06:53:30;;;;;;;0.50;0.50;;;;;;;5.34;100.00;98556.59;5025081;28;20029;-70
2023/01/11 06:55:57;;;;;;;0.50;0.50;;;;;;;5.44;100.00;98586.47;5025473;28;20022;-69
2023/01/11 06:58:23;;;;;;;0.50;0.50;;;;;;;5.50;100.00;98590.63;5025251;28;20106;-70
2023/01/11 07:00:51;;;;;;;0.50;0.50;;;;;;;5.54;100.00;98563.13;5025301;28;20064;-69
2023/01/11 07:03:16;;;;;;;0.40;0.40;;;;;;;5.61;100.00;98569.84;5025263;28;20065;-70
2023/01/11 07:05:43;;;;;;;0.50;0.50;;;;;;;5.66;100.00;98573.22;5025110;28;20180;-69
2023/01/11 07:08:09;;;;;;;0.50;0.50;;;;;;;5.73;100.00;98557.66;5025027;28;20029;-69
2023/01/11 07:10:35;;;;;;;0.40;0.40;;;;;;;5.79;100.00;98570.41;5025165;28;20030;-69
2023/01/11 07:13:00;;;;;;;0.40;0.40;;;;;;;5.84;100.00;98566.03;5023674;28;20017;-70
2023/01/11 07:15:25;;;;;;;0.50;0.50;;;;;;;5.84;100.00;98573.75;5025031;28;20030;-70
2023/01/11 07:17:55;;;;;;;0.50;0.50;;;;;;;5.95;100.00;98574.41;5024986;28;20040;-69
2023/01/11 07:20:22;;;;;;;0.50;0.50;;;;;;;6.02;100.00;98551.09;5025222;28;20034;-69
2023/01/11 07:22:47;;;;;;;0.50;0.50;;;;;;;6.04;100.00;98564.78;5025055;28;20148;-69
2023/01/11 07:25:13;;;;;;;0.50;0.50;;;;;;;6.11;100.00;98579.28;5025225;28;20026;-69
2023/01/11 07:27:38;;;;;;;0.43;0.43;;;;;;;6.13;100.00;98568.94;5025081;28;20504;-69
2023/01/11 07:30:04;;;;;;;0.50;0.50;;;;;;;6.17;100.00;98584.31;5025019;28;20152;-68
2023/01/11 07:32:29;;;;;;;0.50;0.50;;;;;;;6.20;100.00;98586.81;5025048;28;20022;-68
2023/01/11 07:34:55;;;;;;;0.40;0.40;;;;;;;6.24;100.00;98579.03;5025202;28;20026;-68
2023/01/11 07:37:21;;;;;;;0.50;0.50;;;;;;;6.26;100.00;98603.06;5028347;28;20026;-68
2023/01/11 07:39:46;;;;;;;0.50;0.50;;;;;;;6.27;100.00;98603.03;5028757;28;20073;-68
2023/01/11 07:44:56;;;;;;;0.50;0.50;;;;;;;6.27;100.00;98603.03;5028801;28;20041;-68
2023/01/11 07:47:22;;;;;;;0.50;0.50;;;;;;;6.33;100.00;98602.03;5028371;28;20025;-68
2023/01/11 07:49:47;;;;;;;0.50;0.50;;;;;;;6.32;100.00;98610.66;5028725;28;20029;-67
2023/01/11 07:52:13;;;;;;;0.45;0.45;;;;;;;6.29;100.00;98611.56;5028514;28;20026;-68
2023/01/11 07:54:38;;;;;;;0.50;0.50;;;;;;;6.35;100.00;98617.47;5028226;28;20026;-68
2023/01/11 07:57:03;;;;;;;0.50;0.50;;;;;;;6.32;100.00;98621.81;5028433;28;20046;-68
2023/01/11 07:59:29;;;;;;;0.50;0.50;;;;;;;6.31;100.00;98620.13;5028365;28;20024;-68
2023/01/11 08:01:54;;;;;;;0.50;0.50;;;;;;;6.30;100.00;98612.41;5028328;28;20034;-69
2023/01/11 08:04:21;;;;;;;0.50;0.50;;;;;;;6.32;100.00;98615.81;5028373;28;20032;-69
2023/01/11 08:06:46;;;;;;;0.50;0.50;;;;;;;6.32;100.00;98644.16;5028181;28;20061;-69
2023/01/11 08:09:12;;;;;;;0.50;0.50;;;;;;;6.33;100.00;98640.69;5028043;28;20096;-68
2023/01/11 08:14:39;;;;;;;0.50;0.50;;;;;;;6.36;100.00;98653.53;5028255;28;20036;-67
2023/01/11 08:17:07;;;;;;;0.50;0.50;;;;;;;6.37;100.00;98667.28;5028094;28;20052;-68
2023/01/11 08:19:32;;;;;;;0.50;0.50;;;;;;;6.39;100.00;98671.50;5027940;28;20026;-67
2023/01/11 08:21:57;;;;;;;0.40;0.40;;;;;;;6.43;100.00;98660.28;5027914;28;20033;-68
2023/01/11 08:24:23;;;;;;;0.50;0.50;;;;;;;6.44;100.00;98667.13;5027800;28;20083;-67
2023/01/11 08:26:48;;;;;;;0.50;0.50;;;;;;;6.45;100.00;98657.66;5027865;28;20022;-67
2023/01/11 08:29:14;;;;;;;0.50;0.50;;;;;;;6.50;100.00;98681.59;5027727;28;20089;-67
2023/01/11 08:31:43;;;;;;;0.40;0.40;;;;;;;6.52;100.00;98669.53;5027784;28;20546;-68
2023/01/11 08:34:08;;;;;;;0.40;0.40;;;;;;;6.48;100.00;98672.22;5027743;28;20029;-69
2023/01/11 08:36:33;;;;;;;0.50;0.50;;;;;;;6.53;100.00;98694.44;5027685;28;20037;-67
2023/01/11 08:38:59;;;;;;;0.40;0.40;;;;;;;6.54;100.00;98692.72;5027208;28;20046;-68
2023/01/11 08:41:24;;;;;;;0.40;0.40;;;;;;;6.48;100.00;98672.22;5027655;28;20449;-68
2023/01/11 08:43:50;;;;;;;0.40;0.40;;;;;;;6.50;100.00;98689.34;5027698;28;20045;-66
2023/01/11 08:46:17;;;;;;;0.50;0.50;;;;;;;6.49;100.00;98694.53;5026919;28;20030;-68
2023/01/11 08:48:45;;;;;;;0.50;0.50;;;;;;;6.48;100.00;98698.84;5027387;28;20026;-67
2023/01/11 08:51:11;;;;;;;0.50;0.50;;;;;;;6.47;100.00;98706.63;5027439;28;20037;-67
2023/01/11 08:53:37;;;;;;;0.40;0.40;;;;;;;6.47;100.00;98701.47;5027265;28;20026;-67
2023/01/11 08:56:02;;;;;;;0.50;0.50;;;;;;;6.47;100.00;98716.94;5042566;28;20044;-66
2023/01/11 08:58:28;;;;;;;0.50;0.50;;;;;;;6.49;100.00;98720.31;5027385;28;20048;-66
2023/01/11 09:00:56;;;;;;;0.50;0.50;;;;;;;6.47;100.00;98727.25;5027271;28;20026;-66
2023/01/11 09:03:22;;;;;;;0.50;0.50;;;;;;;6.47;100.00;98719.50;5026920;28;20033;-65
2023/01/11 09:05:47;;;;;;;0.50;0.50;;;;;;;6.47;100.00;98743.53;5026683;28;20030;-66
2023/01/11 09:08:13;;;;;;;0.45;0.45;;;;;;;6.48;100.00;98731.50;5026888;28;20088;-67
2023/01/11 09:10:38;;;;;;;0.50;0.50;;;;;;;6.49;100.00;98739.22;5027143;28;20024;-67
2023/01/11 09:13:03;;;;;;;0.50;0.50;;;;;;;6.48;100.00;98741.81;5042298;28;20022;-67
2023/01/11 09:15:29;;;;;;;0.50;0.50;;;;;;;6.48;100.00;98734.09;5026764;28;20040;-67
2023/01/11 09:17:55;;;;;;;0.50;0.50;;;;;;;6.48;100.00;98729.78;5026870;28;20038;-66
2023/01/11 09:20:21;;;;;;;0.50;0.50;;;;;;;6.46;100.00;98731.53;5027057;28;20022;-66
2023/01/11 09:22:48;;;;;;;0.40;0.40;;;;;;;6.50;100.00;98745.22;5026945;28;20096;-66
2023/01/11 09:25:13;;;;;;;0.47;0.47;;;;;;;6.53;100.00;98737.44;5026604;28;20053;-67
2023/01/11 09:27:47;;;;;;;0.50;0.50;;;;;;;6.54;100.00;98739.13;5026433;28;20045;-67
2023/01/11 09:30:14;;;;;;;0.50;0.50;;;;;;;6.52;100.00;98740.88;5026625;28;20022;-67
2023/01/11 09:32:40;;;;;;;0.50;0.50;;;;;;;6.51;100.00;98745.19;5026779;28;20116;-67
2023/01/11 09:35:06;;;;;;;0.50;0.50;;;;;;;6.54;100.00;98755.47;5026705;28;20026;-66
2023/01/11 09:37:32;;;;;;;0.50;0.50;;;;;;;6.54;100.00;98770.06;5026344;28;20022;-66
2023/01/11 09:39:58;;;;;;;0.43;0.43;;;;;;;6.54;100.00;98772.66;5026268;28;20400;-67
2023/01/11 09:42:30;;;;;;;1.15;1.15;;;;;;;6.55;100.00;98767.47;5026571;28;20026;-66
2023/01/11 09:45:04;;;;;;;;;;;;;;;6.56;100.00;98765.75;5027059;28;20030;-66
2023/01/11 09:47:41;;;;;;;0.50;0.50;;;;;;;6.51;100.00;98770.13;5026174;28;19913;-67
2023/01/11 09:50:29;;;;;;;0.40;0.40;;;;;;;6.53;100.00;98770.97;5025102;28;20049;-67
2023/01/11 09:53:09;;;;;;;0.50;0.50;;;;;;;6.53;100.00;98778.69;5026339;28;20022;-66
2023/01/11 09:55:45;;;;;;;0.47;0.47;;;;;;;6.50;100.00;98774.41;5026319;28;20037;-66
2023/01/11 09:58:27;;;;;;;0.50;0.50;;;;;;;6.56;100.00;98778.63;5040473;28;20029;-65
2023/01/11 10:01:03;;;;;;;0.60;0.60;;;;;;;6.58;100.00;98800.09;5026277;28;20113;-66
2023/01/11 10:04:05;;;;;;;0.47;0.47;;;;;;;6.58;100.00;98797.53;5026009;28;20263;-66
2023/01/11 10:06:52;;;;;;;0.50;0.50;;;;;;;6.56;100.00;98805.28;5026107;28;20022;-66
2023/01/11 10:09:33;;;;;;;0.40;0.40;;;;;;;6.56;100.00;98800.13;5040924;28;20040;-66
2023/01/11 10:12:09;;;;;;;0.50;0.50;;;;;;;6.54;100.00;98801.00;5025989;28;20029;-67
2023/01/11 10:14:49;;;;;;;0.50;0.50;;;;;;;6.54;100.00;98801.00;5025994;28;20029;-66
2023/01/11 10:17:42;;;;;;;0.40;0.40;;;;;;;6.53;100.00;98807.88;5025555;28;20057;-66
2023/01/11 10:20:13;;;;;;;0.50;0.50;;;;;;;6.53;100.00;98805.31;5026021;28;20025;-65
2023/01/11 10:22:43;;;;;;;0.50;0.50;;;;;;;6.49;100.00;98797.66;5025812;28;20022;-67
2023/01/11 10:25:15;;;;;;;0.50;0.50;;;;;;;6.54;100.00;98801.88;5040726;28;20022;-66
2023/01/11 10:28:05;;;;;;;0.50;0.50;;;;;;;6.56;100.00;98807.84;5025716;28;20029;-66
2023/01/11 10:33:48;;;;;;;0.40;0.40;;;;;;;6.61;100.00;98805.19;5025864;28;20033;-65
2023/01/11 10:39:20;;;;;;;0.50;0.50;;;;;;;6.62;100.00;98824.94;5025222;28;20133;-65
2023/01/11 10:41:56;;;;;;;0.50;0.50;;;;;;;6.60;100.00;98805.22;5025660;28;20048;-67
2023/01/11 10:45:02;;;;;;;0.50;0.50;;;;;;;6.64;100.00;98809.44;5024389;28;20037;-66
2023/01/11 10:48:06;;;;;;;0.40;0.40;;;;;;;6.64;100.00;98812.88;5024975;28;20042;-66
2023/01/11 10:50:42;;;;;;;0.50;0.50;;;;;;;6.62;100.00;98808.59;5024658;28;20030;-67
2023/01/11 10:53:49;;;;;;;0.50;0.50;;;;;;;6.69;100.00;98823.94;5025383;28;20459;-67
2023/01/11 10:56:32;;;;;;;0.50;0.50;;;;;;;6.64;100.00;98814.59;4984154;28;20093;-66
2023/01/11 10:59:33;;;;;;;0.50;0.50;;;;;;;6.63;100.00;98813.72;4983934;28;20081;-66
2023/01/11 11:02:20;;;;;;;0.50;0.50;;;;;;;6.72;100.00;98814.44;4983787;28;20090;-67
2023/01/11 11:05:00;;;;;;;0.47;0.47;;;;;;;6.73;100.00;98821.31;4984005;28;20027;-67
2023/01/11 11:07:33;;;;;;;0.50;0.50;;;;;;;6.76;100.00;98831.56;4983751;28;20187;-67
2023/01/11 11:10:01;;;;;;;0.40;0.40;;;;;;;6.77;100.00;98835.84;4985038;28;20058;-67
2023/01/11 11:12:33;;;;;;;0.50;0.50;;;;;;;6.77;100.00;98834.09;4987904;28;20471;-68
2023/01/11 11:15:22;;;;;;;0.60;0.60;;;;;;;6.77;100.00;98841.03;4987853;28;20039;-68
2023/01/11 11:17:50;;;;;;;0.40;0.40;;;;;;;6.76;100.00;98847.91;4987601;28;20041;-69
2023/01/11 11:20:43;;;;;;;0.50;0.50;;;;;;;6.73;100.00;98857.41;4987763;28;20047;-70
2023/01/11 11:23:15;;;;;;;0.50;0.50;;;;;;;6.64;100.00;98843.81;4984848;28;20038;-70
2023/01/11 11:25:45;;;;;;;0.63;0.63;;;;;;;6.64;100.00;98842.97;4987588;28;20026;-71
2023/01/11 11:28:13;;;;;;;0.50;0.50;;;;;;;6.63;100.00;98852.41;5029099;28;20030;-71
2023/01/11 11:30:44;;;;;;;0.40;0.40;;;;;;;6.61;100.00;98843.88;5044174;28;20026;-70
2023/01/11 11:33:21;;;;;;;0.50;0.50;;;;;;;6.59;100.00;98861.09;5027825;28;20026;-69
2023/01/11 11:35:58;;;;;;;0.40;0.40;;;;;;;6.58;100.00;98849.09;5028971;28;20030;-68
2023/01/11 11:38:26;;;;;;;0.43;0.43;;;;;;;6.62;100.00;98855.88;5028715;28;20022;-67
2023/01/11 11:41:03;;;;;;;0.50;0.50;;;;;;;6.63;100.00;98864.47;5028605;28;20402;-68
2023/01/11 11:43:30;;;;;;;0.50;0.50;;;;;;;6.64;100.00;98858.44;5028864;28;20057;-69
2023/01/11 11:46:01;;;;;;;0.40;0.40;;;;;;;6.61;100.00;98859.34;5028609;28;20025;-67
2023/01/11 11:48:30;;;;;;;0.50;0.50;;;;;;;6.60;100.00;98862.78;5043802;28;20037;-67
2023/01/11 11:50:59;;;;;;;0.50;0.50;;;;;;;6.69;100.00;98865.19;5028821;28;20029;-68
2023/01/11 11:53:55;;;;;;;0.40;0.40;;;;;;;6.68;100.00;98854.91;5028622;28;20066;-68
2023/01/11 11:56:26;;;;;;;0.50;0.50;;;;;;;6.72;100.00;98858.28;5028695;28;20026;-68
2023/01/11 11:58:54;;;;;;;0.60;0.60;;;;;;;6.76;100.00;98863.38;5043630;28;20072;-70
2023/01/11 12:01:27;;;;;;;0.40;0.40;;;;;;;6.83;100.00;98866.69;5028465;28;20030;-69
2023/01/11 12:04:02;;;;;;;0.40;0.40;;;;;;;6.87;100.00;98870.91;5043660;28;20367;-70
2023/01/11 12:06:29;;;;;;;0.45;0.45;;;;;;;6.92;100.00;98871.69;5028562;28;20441;-70
2023/01/11 12:08:57;;;;;;;0.50;0.50;;;;;;;6.96;100.00;98863.88;5028156;28;20032;-70
2023/01/11 12:11:31;;;;;;;0.50;0.50;;;;;;;6.97;100.00;98868.16;5028323;28;20037;-70
2023/01/11 12:14:20;;;;;;;0.50;0.50;;;;;;;6.99;100.00;98864.69;5028464;28;20026;-71
2023/01/11 12:16:45;;;;;;;0.47;0.47;;;;;;;7.04;100.00;98864.59;5028701;28;20041;-73
2023/01/11 12:19:38;;;;;;;0.50;0.50;;;;;;;7.07;100.00;98882.59;5028424;28;20022;-73
2023/01/11 12:22:12;;;;;;;0.50;0.50;;;;;;;7.09;100.00;98869.69;5027413;28;20048;-72